sensor_id;sensor_type;location;lat;lon;timestamp;temperature;humidity
13375;DHT22;6756;51.354;15.754;2023-04-03T00:04:08;-0.70;99.90
13375;DHT22;6756;51.354;15.754;2023-04-03T00:13:08;-0.90;99.90
13375;DHT22;6756;51.354;15.754;2023-04-03T00:17:19;-1.00;99.90
13375;DHT22;6756;51.354;15.754;2023-04-03T00:21:23;-1.00;99.90
13375;DHT22;6756;51.354;15.754;2023-04-03T00:25:27;-1.10;99.90
13375;DHT22;6756;51.354;15.754;2023-04-03T00:29:28;-1.10;99.90
13375;DHT22;6756;51.354;15.754;2023-04-03T00:33:59;-1.10;99.90
13375;DHT22;6756;51.354;15.754;2023-04-03T00:38:00;-1.10;99.90
13375;DHT22;6756;51.354;15.754;2023-04-03T00:42:15;-1.20;99.90
13375;DHT22;6756;51.354;15.754;2023-04-03T00:46:39;-1.20;99.90
13375;DHT22;6756;51.354;15.754;2023-04-03T00:51:24;-1.20;99.90
13375;DHT22;6756;51.354;15.754;2023-04-03T00:55:32;-1.30;99.90
13375;DHT22;6756;51.354;15.754;2023-04-03T00:59:46;-1.30;99.90
13375;DHT22;6756;51.354;15.754;2023-04-03T01:04:33;-1.30;99.90
13375;DHT22;6756;51.354;15.754;2023-04-03T01:08:58;-1.40;99.90
13375;DHT22;6756;51.354;15.754;2023-04-03T01:13:55;-1.50;99.90
13375;DHT22;6756;51.354;15.754;2023-04-03T01:18:24;-1.60;99.90
13375;DHT22;6756;51.354;15.754;2023-04-03T01:27:24;-1.60;99.90
13375;DHT22;6756;51.354;15.754;2023-04-03T01:31:56;-1.70;99.90
13375;DHT22;6756;51.354;15.754;2023-04-03T01:37:06;-1.70;99.90
13375;DHT22;6756;51.354;15.754;2023-04-03T01:41:35;-1.80;99.90
13375;DHT22;6756;51.354;15.754;2023-04-03T01:45:42;-1.90;1.00
13375;DHT22;6756;51.354;15.754;2023-04-03T01:49:57;-1.90;1.00
13375;DHT22;6756;51.354;15.754;2023-04-03T01:59:07;-2.00;1.00
13375;DHT22;6756;51.354;15.754;2023-04-03T02:03:39;-2.00;1.00
13375;DHT22;6756;51.354;15.754;2023-04-03T02:08:21;-2.10;1.00
13375;DHT22;6756;51.354;15.754;2023-04-03T02:12:36;-2.00;25.70
13375;DHT22;6756;51.354;15.754;2023-04-03T02:17:01;-2.00;25.70
13375;DHT22;6756;51.354;15.754;2023-04-03T02:30:32;-2.10;99.90
13375;DHT22;6756;51.354;15.754;2023-04-03T02:34:37;-2.30;67.30
13375;DHT22;6756;51.354;15.754;2023-04-03T02:38:47;-2.30;99.90
13375;DHT22;6756;51.354;15.754;2023-04-03T02:42:58;-2.40;99.90
13375;DHT22;6756;51.354;15.754;2023-04-03T02:47:25;-2.30;99.90
13375;DHT22;6756;51.354;15.754;2023-04-03T02:51:43;-2.30;99.90
13375;DHT22;6756;51.354;15.754;2023-04-03T02:55:57;-2.50;99.90
13375;DHT22;6756;51.354;15.754;2023-04-03T03:00:10;-2.70;99.90
13375;DHT22;6756;51.354;15.754;2023-04-03T03:04:49;-2.70;1.00
13375;DHT22;6756;51.354;15.754;2023-04-03T03:09:10;-2.60;1.00
13375;DHT22;6756;51.354;15.754;2023-04-03T03:13:13;-2.50;1.00
13375;DHT22;6756;51.354;15.754;2023-04-03T03:17:23;-2.60;1.00
13375;DHT22;6756;51.354;15.754;2023-04-03T03:21:36;-2.70;1.00
13375;DHT22;6756;51.354;15.754;2023-04-03T03:25:41;-2.80;1.00
13375;DHT22;6756;51.354;15.754;2023-04-03T03:30:03;-2.70;99.90
13375;DHT22;6756;51.354;15.754;2023-04-03T03:34:09;-2.70;99.90
13375;DHT22;6756;51.354;15.754;2023-04-03T03:38:10;-2.90;1.00
13375;DHT22;6756;51.354;15.754;2023-04-03T03:42:15;-3.00;99.90
13375;DHT22;6756;51.354;15.754;2023-04-03T03:46:45;-2.90;1.00
13375;DHT22;6756;51.354;15.754;2023-04-03T03:51:37;-2.80;99.90
13375;DHT22;6756;51.354;15.754;2023-04-03T03:55:41;-2.80;99.90
13375;DHT22;6756;51.354;15.754;2023-04-03T04:00:02;-2.80;99.90
13375;DHT22;6756;51.354;15.754;2023-04-03T04:04:06;-2.80;44.30
13375;DHT22;6756;51.354;15.754;2023-04-03T04:12:55;-2.90;99.90
13375;DHT22;6756;51.354;15.754;2023-04-03T04:17:05;-3.00;96.60
13375;DHT22;6756;51.354;15.754;2023-04-03T04:30:35;-3.00;1.00
13375;DHT22;6756;51.354;15.754;2023-04-03T04:34:42;-2.90;99.90
13375;DHT22;6756;51.354;15.754;2023-04-03T04:38:43;-2.90;99.90
13375;DHT22;6756;51.354;15.754;2023-04-03T04:47:17;-2.90;99.90
13375;DHT22;6756;51.354;15.754;2023-04-03T04:51:36;-2.90;99.90
13375;DHT22;6756;51.354;15.754;2023-04-03T04:55:46;-2.90;99.90
13375;DHT22;6756;51.354;15.754;2023-04-03T05:05:11;-2.70;99.90
13375;DHT22;6756;51.354;15.754;2023-04-03T05:09:34;-2.60;99.90
13375;DHT22;6756;51.354;15.754;2023-04-03T05:14:29;-2.50;99.90
13375;DHT22;6756;51.354;15.754;2023-04-03T05:18:52;-2.40;1.00
13375;DHT22;6756;51.354;15.754;2023-04-03T05:22:57;-2.30;1.00
13375;DHT22;6756;51.354;15.754;2023-04-03T05:27:01;-2.20;99.90
13375;DHT22;6756;51.354;15.754;2023-04-03T05:36:21;-2.00;99.90
13375;DHT22;6756;51.354;15.754;2023-04-03T05:41:14;-1.90;99.90
13375;DHT22;6756;51.354;15.754;2023-04-03T05:45:24;-1.70;1.00
13375;DHT22;6756;51.354;15.754;2023-04-03T05:54:35;-1.30;99.90
13375;DHT22;6756;51.354;15.754;2023-04-03T05:58:39;-1.30;99.90
13375;DHT22;6756;51.354;15.754;2023-04-03T06:03:22;-1.20;98.60
13375;DHT22;6756;51.354;15.754;2023-04-03T06:07:58;-1.10;36.60
13375;DHT22;6756;51.354;15.754;2023-04-03T06:12:03;-1.00;16.80
13375;DHT22;6756;51.354;15.754;2023-04-03T06:16:35;-0.90;1.00
13375;DHT22;6756;51.354;15.754;2023-04-03T06:20:40;-0.80;1.00
13375;DHT22;6756;51.354;15.754;2023-04-03T06:24:41;-0.70;1.00
13375;DHT22;6756;51.354;15.754;2023-04-03T06:28:42;-0.50;1.00
13375;DHT22;6756;51.354;15.754;2023-04-03T06:32:48;-0.40;1.00
13375;DHT22;6756;51.354;15.754;2023-04-03T06:36:50;-0.30;1.00
13375;DHT22;6756;51.354;15.754;2023-04-03T06:40:54;-0.10;99.90
13375;DHT22;6756;51.354;15.754;2023-04-03T06:44:59;0.10;99.90
13375;DHT22;6756;51.354;15.754;2023-04-03T06:49:02;0.20;99.90
13375;DHT22;6756;51.354;15.754;2023-04-03T06:53:04;0.30;99.90
13375;DHT22;6756;51.354;15.754;2023-04-03T06:57:14;0.40;99.90
13375;DHT22;6756;51.354;15.754;2023-04-03T07:01:17;0.60;99.90
13375;DHT22;6756;51.354;15.754;2023-04-03T07:05:19;0.80;99.90
13375;DHT22;6756;51.354;15.754;2023-04-03T07:09:24;1.00;99.90
13375;DHT22;6756;51.354;15.754;2023-04-03T07:13:25;1.00;99.90
13375;DHT22;6756;51.354;15.754;2023-04-03T07:17:27;1.20;99.90
13375;DHT22;6756;51.354;15.754;2023-04-03T07:21:28;1.20;99.90
13375;DHT22;6756;51.354;15.754;2023-04-03T07:25:29;1.20;99.90
13375;DHT22;6756;51.354;15.754;2023-04-03T07:29:30;1.30;99.90
13375;DHT22;6756;51.354;15.754;2023-04-03T07:33:32;1.40;99.90
13375;DHT22;6756;51.354;15.754;2023-04-03T07:37:33;1.60;99.90
13375;DHT22;6756;51.354;15.754;2023-04-03T07:41:38;1.80;99.90
13375;DHT22;6756;51.354;15.754;2023-04-03T07:45:39;2.00;99.90
13375;DHT22;6756;51.354;15.754;2023-04-03T07:49:44;2.10;81.30
13375;DHT22;6756;51.354;15.754;2023-04-03T07:53:46;2.20;41.60
13375;DHT22;6756;51.354;15.754;2023-04-03T07:57:47;2.40;38.10
13375;DHT22;6756;51.354;15.754;2023-04-03T08:01:50;2.60;30.50
13375;DHT22;6756;51.354;15.754;2023-04-03T08:10:52;2.60;19.80
13375;DHT22;6756;51.354;15.754;2023-04-03T08:14:54;2.80;19.70
13375;DHT22;6756;51.354;15.754;2023-04-03T08:19:05;3.10;11.80
13375;DHT22;6756;51.354;15.754;2023-04-03T08:23:16;3.50;1.00
13375;DHT22;6756;51.354;15.754;2023-04-03T08:27:17;3.90;1.00
13375;DHT22;6756;51.354;15.754;2023-04-03T08:31:19;4.10;1.00
13375;DHT22;6756;51.354;15.754;2023-04-03T08:35:20;4.10;1.00
13375;DHT22;6756;51.354;15.754;2023-04-03T08:39:46;4.10;1.00
13375;DHT22;6756;51.354;15.754;2023-04-03T08:44:01;4.10;1.00
13375;DHT22;6756;51.354;15.754;2023-04-03T08:48:24;4.10;1.00
13375;DHT22;6756;51.354;15.754;2023-04-03T08:52:49;4.30;1.00
13375;DHT22;6756;51.354;15.754;2023-04-03T08:56:55;4.70;1.00
13375;DHT22;6756;51.354;15.754;2023-04-03T09:01:02;5.10;1.00
13375;DHT22;6756;51.354;15.754;2023-04-03T09:05:19;4.90;1.00
13375;DHT22;6756;51.354;15.754;2023-04-03T09:09:41;4.60;1.00
13375;DHT22;6756;51.354;15.754;2023-04-03T09:18:35;4.50;1.00
13375;DHT22;6756;51.354;15.754;2023-04-03T09:22:43;4.60;1.00
13375;DHT22;6756;51.354;15.754;2023-04-03T09:30:54;5.60;1.00
13375;DHT22;6756;51.354;15.754;2023-04-03T09:35:04;5.10;1.00
13375;DHT22;6756;51.354;15.754;2023-04-03T09:39:29;4.70;1.00
13375;DHT22;6756;51.354;15.754;2023-04-03T09:43:32;4.70;1.00
13375;DHT22;6756;51.354;15.754;2023-04-03T09:47:35;5.20;1.00
13375;DHT22;6756;51.354;15.754;2023-04-03T09:51:40;5.80;1.00
13375;DHT22;6756;51.354;15.754;2023-04-03T09:55:43;5.60;1.00
13375;DHT22;6756;51.354;15.754;2023-04-03T09:59:57;5.40;1.00
13375;DHT22;6756;51.354;15.754;2023-04-03T10:04:18;5.20;1.00
13375;DHT22;6756;51.354;15.754;2023-04-03T10:08:23;5.20;1.00
13375;DHT22;6756;51.354;15.754;2023-04-03T10:12:25;4.50;1.00
13375;DHT22;6756;51.354;15.754;2023-04-03T10:16:34;4.30;1.00
13375;DHT22;6756;51.354;15.754;2023-04-03T10:20:43;4.30;1.00
13375;DHT22;6756;51.354;15.754;2023-04-03T10:25:02;4.10;1.00
13375;DHT22;6756;51.354;15.754;2023-04-03T10:43:40;4.70;1.00
13375;DHT22;6756;51.354;15.754;2023-04-03T10:52:48;4.30;1.00
13375;DHT22;6756;51.354;15.754;2023-04-03T10:56:57;5.20;1.00
13375;DHT22;6756;51.354;15.754;2023-04-03T11:05:52;5.60;1.00
13375;DHT22;6756;51.354;15.754;2023-04-03T11:09:58;5.90;1.00
13375;DHT22;6756;51.354;15.754;2023-04-03T11:14:28;5.70;1.00
13375;DHT22;6756;51.354;15.754;2023-04-03T11:19:20;5.40;1.00
13375;DHT22;6756;51.354;15.754;2023-04-03T11:23:26;5.90;1.00
13375;DHT22;6756;51.354;15.754;2023-04-03T11:27:33;4.90;1.00
13375;DHT22;6756;51.354;15.754;2023-04-03T11:35:48;5.00;1.00
13375;DHT22;6756;51.354;15.754;2023-04-03T11:40:03;5.20;1.00
13375;DHT22;6756;51.354;15.754;2023-04-03T11:44:35;5.20;1.00
13375;DHT22;6756;51.354;15.754;2023-04-03T11:48:45;5.10;1.00
13375;DHT22;6756;51.354;15.754;2023-04-03T11:56:50;5.50;1.00
13375;DHT22;6756;51.354;15.754;2023-04-03T12:01:04;5.70;1.00
13375;DHT22;6756;51.354;15.754;2023-04-03T12:05:27;5.30;1.00
13375;DHT22;6756;51.354;15.754;2023-04-03T12:09:33;5.40;1.00
13375;DHT22;6756;51.354;15.754;2023-04-03T12:17:50;5.40;1.00
13375;DHT22;6756;51.354;15.754;2023-04-03T12:26:20;5.60;1.00
13375;DHT22;6756;51.354;15.754;2023-04-03T12:30:29;6.20;1.00
13375;DHT22;6756;51.354;15.754;2023-04-03T12:39:10;6.20;1.00
13375;DHT22;6756;51.354;15.754;2023-04-03T12:47:52;6.70;1.00
13375;DHT22;6756;51.354;15.754;2023-04-03T12:51:58;6.30;1.00
13375;DHT22;6756;51.354;15.754;2023-04-03T12:56:40;6.20;1.00
13375;DHT22;6756;51.354;15.754;2023-04-03T13:00:41;6.30;1.00
13375;DHT22;6756;51.354;15.754;2023-04-03T13:04:43;6.60;1.00
13375;DHT22;6756;51.354;15.754;2023-04-03T13:08:57;6.80;1.00
13375;DHT22;6756;51.354;15.754;2023-04-03T13:13:08;6.50;1.00
13375;DHT22;6756;51.354;15.754;2023-04-03T13:17:15;6.00;1.00
13375;DHT22;6756;51.354;15.754;2023-04-03T13:25:53;5.70;1.00
13375;DHT22;6756;51.354;15.754;2023-04-03T13:29:57;6.30;1.00
13375;DHT22;6756;51.354;15.754;2023-04-03T13:34:13;6.60;1.00
13375;DHT22;6756;51.354;15.754;2023-04-03T13:42:32;6.20;1.00
13375;DHT22;6756;51.354;15.754;2023-04-03T13:46:36;6.00;1.00
13375;DHT22;6756;51.354;15.754;2023-04-03T13:55:00;5.60;1.00
13375;DHT22;6756;51.354;15.754;2023-04-03T14:03:38;5.80;1.00
13375;DHT22;6756;51.354;15.754;2023-04-03T14:07:40;6.30;1.00
13375;DHT22;6756;51.354;15.754;2023-04-03T14:11:45;6.40;1.00
13375;DHT22;6756;51.354;15.754;2023-04-03T14:15:50;6.70;1.00
13375;DHT22;6756;51.354;15.754;2023-04-03T14:19:58;6.70;1.00
13375;DHT22;6756;51.354;15.754;2023-04-03T14:24:09;6.50;1.00
13375;DHT22;6756;51.354;15.754;2023-04-03T14:28:38;6.30;1.00
13375;DHT22;6756;51.354;15.754;2023-04-03T14:32:41;6.10;1.00
13375;DHT22;6756;51.354;15.754;2023-04-03T14:36:56;6.20;1.00
13375;DHT22;6756;51.354;15.754;2023-04-03T14:40:57;6.10;1.00
13375;DHT22;6756;51.354;15.754;2023-04-03T14:45:00;6.00;1.00
13375;DHT22;6756;51.354;15.754;2023-04-03T14:49:02;6.30;1.00
13375;DHT22;6756;51.354;15.754;2023-04-03T14:53:10;6.40;1.00
13375;DHT22;6756;51.354;15.754;2023-04-03T14:57:13;6.10;1.00
13375;DHT22;6756;51.354;15.754;2023-04-03T15:01:15;5.90;1.00
13375;DHT22;6756;51.354;15.754;2023-04-03T15:05:16;5.90;1.00
13375;DHT22;6756;51.354;15.754;2023-04-03T15:09:26;5.60;1.00
13375;DHT22;6756;51.354;15.754;2023-04-03T15:13:30;5.30;1.00
13375;DHT22;6756;51.354;15.754;2023-04-03T15:17:31;5.30;1.00
13375;DHT22;6756;51.354;15.754;2023-04-03T15:21:32;5.30;1.00
13375;DHT22;6756;51.354;15.754;2023-04-03T15:25:33;5.30;1.00
13375;DHT22;6756;51.354;15.754;2023-04-03T15:29:41;5.40;1.00
13375;DHT22;6756;51.354;15.754;2023-04-03T15:33:42;5.50;1.00
13375;DHT22;6756;51.354;15.754;2023-04-03T15:38:04;5.60;1.00
13375;DHT22;6756;51.354;15.754;2023-04-03T15:42:05;5.60;1.00
13375;DHT22;6756;51.354;15.754;2023-04-03T15:46:06;5.50;1.00
13375;DHT22;6756;51.354;15.754;2023-04-03T15:50:08;5.40;1.00
13375;DHT22;6756;51.354;15.754;2023-04-03T15:54:13;5.30;1.00
13375;DHT22;6756;51.354;15.754;2023-04-03T15:58:14;5.10;1.00
13375;DHT22;6756;51.354;15.754;2023-04-03T16:02:21;5.00;1.00
13375;DHT22;6756;51.354;15.754;2023-04-03T16:06:24;5.00;1.00
13375;DHT22;6756;51.354;15.754;2023-04-03T16:10:25;4.90;1.00
13375;DHT22;6756;51.354;15.754;2023-04-03T16:14:33;4.90;1.00
13375;DHT22;6756;51.354;15.754;2023-04-03T16:22:49;4.70;1.00
13375;DHT22;6756;51.354;15.754;2023-04-03T16:26:50;4.60;1.00
13375;DHT22;6756;51.354;15.754;2023-04-03T16:30:51;4.60;1.00
13375;DHT22;6756;51.354;15.754;2023-04-03T16:34:55;4.60;1.00
13375;DHT22;6756;51.354;15.754;2023-04-03T16:38:57;4.60;1.00
13375;DHT22;6756;51.354;15.754;2023-04-03T16:42:58;4.60;1.00
13375;DHT22;6756;51.354;15.754;2023-04-03T16:46:59;4.60;1.00
13375;DHT22;6756;51.354;15.754;2023-04-03T16:51:03;4.50;1.00
13375;DHT22;6756;51.354;15.754;2023-04-03T16:55:04;4.40;1.00
13375;DHT22;6756;51.354;15.754;2023-04-03T16:59:06;4.30;1.00
13375;DHT22;6756;51.354;15.754;2023-04-03T17:03:08;4.20;1.00
13375;DHT22;6756;51.354;15.754;2023-04-03T17:07:09;4.10;1.00
13375;DHT22;6756;51.354;15.754;2023-04-03T17:11:10;3.90;1.00
13375;DHT22;6756;51.354;15.754;2023-04-03T17:15:11;3.90;1.00
13375;DHT22;6756;51.354;15.754;2023-04-03T17:19:12;3.80;1.00
13375;DHT22;6756;51.354;15.754;2023-04-03T17:23:14;3.70;1.00
13375;DHT22;6756;51.354;15.754;2023-04-03T17:27:15;3.60;1.00
13375;DHT22;6756;51.354;15.754;2023-04-03T17:31:22;3.50;1.00
13375;DHT22;6756;51.354;15.754;2023-04-03T17:35:25;3.40;1.00
13375;DHT22;6756;51.354;15.754;2023-04-03T17:39:27;3.40;1.00
13375;DHT22;6756;51.354;15.754;2023-04-03T17:43:28;3.30;1.00
13375;DHT22;6756;51.354;15.754;2023-04-03T17:47:29;3.30;1.00
13375;DHT22;6756;51.354;15.754;2023-04-03T17:51:30;3.20;1.00
13375;DHT22;6756;51.354;15.754;2023-04-03T17:55:37;3.20;1.00
13375;DHT22;6756;51.354;15.754;2023-04-03T17:59:41;3.10;1.00
13375;DHT22;6756;51.354;15.754;2023-04-03T18:03:42;3.00;1.00
13375;DHT22;6756;51.354;15.754;2023-04-03T18:07:43;3.00;1.00
13375;DHT22;6756;51.354;15.754;2023-04-03T18:12:07;3.00;1.00
13375;DHT22;6756;51.354;15.754;2023-04-03T18:16:09;3.00;1.00
13375;DHT22;6756;51.354;15.754;2023-04-03T18:20:11;3.00;1.00
13375;DHT22;6756;51.354;15.754;2023-04-03T18:24:18;3.00;1.00
13375;DHT22;6756;51.354;15.754;2023-04-03T18:28:20;3.00;1.00
13375;DHT22;6756;51.354;15.754;2023-04-03T18:32:21;2.90;1.00
13375;DHT22;6756;51.354;15.754;2023-04-03T18:36:22;2.90;1.00
13375;DHT22;6756;51.354;15.754;2023-04-03T18:40:23;2.90;1.00
13375;DHT22;6756;51.354;15.754;2023-04-03T18:44:25;2.90;1.00
13375;DHT22;6756;51.354;15.754;2023-04-03T18:48:27;2.90;1.00
13375;DHT22;6756;51.354;15.754;2023-04-03T18:52:29;2.80;1.00
13375;DHT22;6756;51.354;15.754;2023-04-03T18:56:31;2.80;1.00
13375;DHT22;6756;51.354;15.754;2023-04-03T19:00:32;2.80;1.00
13375;DHT22;6756;51.354;15.754;2023-04-03T19:04:34;2.80;1.00
13375;DHT22;6756;51.354;15.754;2023-04-03T19:08:36;2.80;1.00
13375;DHT22;6756;51.354;15.754;2023-04-03T19:12:36;2.70;1.00
13375;DHT22;6756;51.354;15.754;2023-04-03T19:16:37;2.70;1.00
13375;DHT22;6756;51.354;15.754;2023-04-03T19:20:39;2.70;1.00
13375;DHT22;6756;51.354;15.754;2023-04-03T19:24:49;2.60;1.00
13375;DHT22;6756;51.354;15.754;2023-04-03T19:28:59;2.50;1.00
13375;DHT22;6756;51.354;15.754;2023-04-03T19:33:00;2.60;1.00
13375;DHT22;6756;51.354;15.754;2023-04-03T19:37:02;2.60;1.00
13375;DHT22;6756;51.354;15.754;2023-04-03T19:41:07;2.60;1.00
13375;DHT22;6756;51.354;15.754;2023-04-03T19:45:10;2.60;1.00
13375;DHT22;6756;51.354;15.754;2023-04-03T19:49:12;2.50;1.00
13375;DHT22;6756;51.354;15.754;2023-04-03T19:53:13;2.40;1.00
13375;DHT22;6756;51.354;15.754;2023-04-03T19:57:18;2.40;1.00
13375;DHT22;6756;51.354;15.754;2023-04-03T20:01:24;2.30;1.00
13375;DHT22;6756;51.354;15.754;2023-04-03T20:05:26;2.30;1.00
13375;DHT22;6756;51.354;15.754;2023-04-03T20:09:28;2.40;1.00
13375;DHT22;6756;51.354;15.754;2023-04-03T20:13:30;2.40;1.00
13375;DHT22;6756;51.354;15.754;2023-04-03T20:17:34;2.40;1.00
13375;DHT22;6756;51.354;15.754;2023-04-03T20:21:38;2.30;1.00
13375;DHT22;6756;51.354;15.754;2023-04-03T20:25:44;2.30;1.00
13375;DHT22;6756;51.354;15.754;2023-04-03T20:29:45;2.30;1.00
13375;DHT22;6756;51.354;15.754;2023-04-03T20:33:46;2.30;1.00
13375;DHT22;6756;51.354;15.754;2023-04-03T20:37:48;2.20;1.00
13375;DHT22;6756;51.354;15.754;2023-04-03T20:41:52;2.20;1.00
13375;DHT22;6756;51.354;15.754;2023-04-03T20:46:06;2.20;1.00
13375;DHT22;6756;51.354;15.754;2023-04-03T20:50:09;2.10;1.00
13375;DHT22;6756;51.354;15.754;2023-04-03T20:54:11;2.10;1.00
13375;DHT22;6756;51.354;15.754;2023-04-03T20:58:12;2.10;1.00
13375;DHT22;6756;51.354;15.754;2023-04-03T21:02:13;2.10;1.00
13375;DHT22;6756;51.354;15.754;2023-04-03T21:19:54;2.20;1.00
13375;DHT22;6756;51.354;15.754;2023-04-03T21:23:56;2.10;1.00
13375;DHT22;6756;51.354;15.754;2023-04-03T21:28:06;2.10;1.00
13375;DHT22;6756;51.354;15.754;2023-04-03T21:32:07;2.10;1.00
13375;DHT22;6756;51.354;15.754;2023-04-03T21:36:09;2.10;1.00
13375;DHT22;6756;51.354;15.754;2023-04-03T21:40:10;2.10;1.00
13375;DHT22;6756;51.354;15.754;2023-04-03T21:44:12;2.00;1.00
13375;DHT22;6756;51.354;15.754;2023-04-03T21:48:13;1.90;1.00
13375;DHT22;6756;51.354;15.754;2023-04-03T21:52:16;1.80;1.00
13375;DHT22;6756;51.354;15.754;2023-04-03T21:56:20;1.80;1.00
13375;DHT22;6756;51.354;15.754;2023-04-03T22:00:22;1.70;1.00
13375;DHT22;6756;51.354;15.754;2023-04-03T22:04:23;1.70;1.00
13375;DHT22;6756;51.354;15.754;2023-04-03T22:08:29;1.80;1.00
13375;DHT22;6756;51.354;15.754;2023-04-03T22:12:30;1.80;1.00
13375;DHT22;6756;51.354;15.754;2023-04-03T22:16:35;1.80;1.00
13375;DHT22;6756;51.354;15.754;2023-04-03T22:20:36;1.80;1.00
13375;DHT22;6756;51.354;15.754;2023-04-03T22:24:37;1.80;1.00
13375;DHT22;6756;51.354;15.754;2023-04-03T22:28:43;1.80;1.00
13375;DHT22;6756;51.354;15.754;2023-04-03T22:32:50;1.80;1.00
13375;DHT22;6756;51.354;15.754;2023-04-03T22:36:57;1.80;1.00
13375;DHT22;6756;51.354;15.754;2023-04-03T22:41:00;1.90;1.00
13375;DHT22;6756;51.354;15.754;2023-04-03T22:45:11;1.90;1.00
13375;DHT22;6756;51.354;15.754;2023-04-03T22:49:24;1.90;1.00
13375;DHT22;6756;51.354;15.754;2023-04-03T22:53:28;1.90;1.00
13375;DHT22;6756;51.354;15.754;2023-04-03T22:57:29;2.00;1.00
13375;DHT22;6756;51.354;15.754;2023-04-03T23:01:31;2.00;1.00
13375;DHT22;6756;51.354;15.754;2023-04-03T23:05:39;1.90;1.00
13375;DHT22;6756;51.354;15.754;2023-04-03T23:09:40;1.90;1.00
13375;DHT22;6756;51.354;15.754;2023-04-03T23:13:42;1.90;1.00
13375;DHT22;6756;51.354;15.754;2023-04-03T23:17:43;1.90;1.00
13375;DHT22;6756;51.354;15.754;2023-04-03T23:21:44;1.90;1.00
13375;DHT22;6756;51.354;15.754;2023-04-03T23:25:51;1.90;1.00
13375;DHT22;6756;51.354;15.754;2023-04-03T23:29:52;1.90;1.00
13375;DHT22;6756;51.354;15.754;2023-04-03T23:33:53;1.90;1.00
13375;DHT22;6756;51.354;15.754;2023-04-03T23:37:54;1.90;1.00
13375;DHT22;6756;51.354;15.754;2023-04-03T23:41:55;1.80;1.00
13375;DHT22;6756;51.354;15.754;2023-04-03T23:45:57;1.80;1.00
13375;DHT22;6756;51.354;15.754;2023-04-03T23:49:58;1.80;1.00
13375;DHT22;6756;51.354;15.754;2023-04-03T23:53:59;1.80;1.00
13375;DHT22;6756;51.354;15.754;2023-04-03T23:58:03;1.70;1.00
